createdAt,value
2022-07-29T00:00:00.655Z,2.73
2022-07-29T00:02:28.589Z,2.53
2022-07-29T00:04:57.931Z,2.70
2022-07-29T00:07:25.623Z,2.80
2022-07-29T00:09:52.828Z,2.97
2022-07-29T00:12:25.496Z,3.13
2022-07-29T00:14:57.858Z,2.87
2022-07-29T00:17:25.766Z,2.93
2022-07-29T00:19:53.008Z,3.37
2022-07-29T00:22:20.742Z,2.53
2022-07-29T00:24:49.652Z,2.67
2022-07-29T00:27:17.246Z,3.10
2022-07-29T00:29:44.476Z,2.97
2022-07-29T00:32:11.915Z,2.87
2022-07-29T00:34:58.075Z,2.80
2022-07-29T00:37:25.351Z,3.10
2022-07-29T00:39:52.652Z,3.23
2022-07-29T00:42:19.882Z,3.07
2022-07-29T00:44:47.264Z,2.90
2022-07-29T00:47:14.703Z,3.37
2022-07-29T00:49:42.824Z,3.00
2022-07-29T00:52:10.919Z,3.20
2022-07-29T00:54:44.096Z,2.93
2022-07-29T00:57:12.606Z,3.23
2022-07-29T00:59:39.979Z,3.33
2022-07-29T01:02:07.756Z,2.93
2022-07-29T01:04:35.494Z,3.00
2022-07-29T01:07:03.404Z,3.27
2022-07-29T01:09:42.877Z,3.00
2022-07-29T01:12:18.575Z,3.30
2022-07-29T01:14:46.749Z,3.87
2022-07-29T01:17:19.585Z,3.40
2022-07-29T01:19:50.581Z,3.50
2022-07-29T01:22:29.594Z,3.73
2022-07-29T01:25:15.637Z,4.43
2022-07-29T01:27:42.960Z,4.93
2022-07-29T01:30:12.323Z,4.20
2022-07-29T01:32:44.633Z,4.60
2022-07-29T01:35:17.655Z,4.70
2022-07-29T01:37:46.945Z,4.63
2022-07-29T01:40:20.472Z,4.70
2022-07-29T01:42:51.093Z,4.80
2022-07-29T01:45:23.378Z,4.63
2022-07-29T01:48:09.543Z,5.53
2022-07-29T01:50:39.693Z,5.30
2022-07-29T01:53:09.654Z,5.27
2022-07-29T01:55:40.175Z,5.20
2022-07-29T01:58:08.631Z,5.40
2022-07-29T02:00:36.741Z,5.97
2022-07-29T02:03:05.679Z,5.93
2022-07-29T02:05:34.250Z,6.90
2022-07-29T02:08:02.837Z,7.40
2022-07-29T02:10:31.484Z,7.17
2022-07-29T02:13:00.088Z,8.63
2022-07-29T02:15:29.050Z,8.80
2022-07-29T02:18:02.815Z,8.67
2022-07-29T02:20:31.580Z,9.50
2022-07-29T02:23:00.757Z,9.83
2022-07-29T02:25:37.296Z,9.10
2022-07-29T02:28:05.939Z,9.13
2022-07-29T02:30:33.571Z,10.30
2022-07-29T02:33:01.298Z,11.43
2022-07-29T02:35:28.878Z,11.47
2022-07-29T02:38:21.875Z,13.53
2022-07-29T02:40:50.391Z,14.07
2022-07-29T02:43:19.100Z,13.17
2022-07-29T02:45:46.875Z,14.33
2022-07-29T02:48:21.680Z,16.67
2022-07-29T02:50:53.607Z,16.73
2022-07-29T02:53:21.988Z,18.97
2022-07-29T02:55:53.304Z,16.27
2022-07-29T02:58:29.295Z,17.87
2022-07-29T03:01:01.371Z,19.43
2022-07-29T03:03:31.148Z,20.37
2022-07-29T03:05:59.405Z,21.33
2022-07-29T03:08:27.656Z,23.90
2022-07-29T03:10:55.160Z,24.63
2022-07-29T03:13:23.086Z,27.97
2022-07-29T03:15:50.802Z,31.37
2022-07-29T03:18:18.596Z,30.70
2022-07-29T03:20:45.941Z,29.93
2022-07-29T03:23:13.223Z,29.10
2022-07-29T03:25:40.501Z,29.13
2022-07-29T03:28:07.786Z,29.40
2022-07-29T03:30:35.095Z,26.73
2022-07-29T03:33:02.332Z,26.63
2022-07-29T03:35:30.927Z,25.73
2022-07-29T03:37:58.150Z,30.13
2022-07-29T03:40:32.717Z,30.93
2022-07-29T03:43:00.841Z,30.70
2022-07-29T03:45:28.494Z,33.77
2022-07-29T03:48:00.706Z,35.37
2022-07-29T03:50:28.995Z,34.53
2022-07-29T03:52:56.298Z,35.37
2022-07-29T03:55:23.633Z,34.53
2022-07-29T03:57:51.256Z,34.07
2022-07-29T04:00:18.627Z,33.83
2022-07-29T04:02:49.188Z,31.83
2022-07-29T04:05:16.943Z,31.30
2022-07-29T04:07:47.642Z,28.47
2022-07-29T04:10:16.513Z,29.83
2022-07-29T04:12:43.820Z,30.20
2022-07-29T04:15:11.376Z,29.60
2022-07-29T04:17:38.802Z,28.23
2022-07-29T04:20:06.453Z,27.80
2022-07-29T04:22:33.749Z,26.67
2022-07-29T04:25:03.920Z,26.13
2022-07-29T04:27:31.888Z,27.23
2022-07-29T04:29:59.154Z,25.30
2022-07-29T04:32:27.144Z,26.83
2022-07-29T04:34:54.520Z,25.43
2022-07-29T04:37:21.808Z,24.93
2022-07-29T04:39:49.075Z,25.93
2022-07-29T04:42:16.280Z,22.73
2022-07-29T04:44:44.663Z,24.67
2022-07-29T04:47:13.026Z,24.00
2022-07-29T04:49:40.469Z,23.23
2022-07-29T04:52:07.951Z,24.27
2022-07-29T04:54:35.507Z,100.30
2022-07-29T04:57:02.726Z,31.07
2022-07-29T04:59:30.118Z,89.33
2022-07-29T05:01:57.437Z,25.57
2022-07-29T05:04:24.704Z,22.30
2022-07-29T05:06:53.092Z,24.60
2022-07-29T05:09:20.433Z,23.33
2022-07-29T05:11:47.662Z,24.00
2022-07-29T05:14:15.128Z,23.13
2022-07-29T05:16:44.262Z,23.47
2022-07-29T05:19:14.390Z,21.80
2022-07-29T05:21:42.370Z,22.83
2022-07-29T05:24:09.657Z,23.87
2022-07-29T05:26:36.913Z,24.57
2022-07-29T05:29:04.295Z,29.97
2022-07-29T05:31:31.660Z,28.10
2022-07-29T05:33:58.950Z,26.97
2022-07-29T05:36:26.271Z,31.33
2022-07-29T05:38:53.661Z,106.77
2022-07-29T05:41:22.031Z,28.53
2022-07-29T05:43:49.281Z,27.10
2022-07-29T05:46:17.053Z,26.57
2022-07-29T05:48:44.334Z,26.47
2022-07-29T05:51:11.732Z,28.77
2022-07-29T05:53:39.147Z,28.57
2022-07-29T05:56:06.771Z,27.63
2022-07-29T05:58:34.126Z,27.00
2022-07-29T06:01:02.012Z,28.23
2022-07-29T06:03:29.553Z,29.17
2022-07-29T06:05:56.997Z,26.07
2022-07-29T06:08:24.448Z,25.73
2022-07-29T06:10:51.731Z,27.40
2022-07-29T06:13:18.980Z,26.87
2022-07-29T06:15:46.427Z,24.60
2022-07-29T06:18:14.590Z,24.87
2022-07-29T06:20:42.031Z,23.17
2022-07-29T06:23:10.805Z,23.53
2022-07-29T06:25:38.546Z,21.07
2022-07-29T06:28:06.056Z,21.57
2022-07-29T06:30:33.556Z,22.20
2022-07-29T06:33:02.306Z,21.40
2022-07-29T06:35:38.797Z,22.07
2022-07-29T06:38:25.105Z,21.90
2022-07-29T06:41:06.971Z,22.27
2022-07-29T06:43:50.229Z,20.80
2022-07-29T06:46:19.779Z,19.97
2022-07-29T06:48:48.546Z,20.87
2022-07-29T06:51:16.269Z,20.63
2022-07-29T06:53:59.544Z,21.20
2022-07-29T06:56:39.635Z,22.37
2022-07-29T06:59:11.456Z,21.27
2022-07-29T07:01:43.096Z,20.57
2022-07-29T07:04:10.828Z,21.80
2022-07-29T07:06:38.842Z,21.77
2022-07-29T07:09:06.555Z,21.27
2022-07-29T07:11:33.944Z,20.17
2022-07-29T07:14:03.869Z,21.13
2022-07-29T07:16:32.496Z,19.33
2022-07-29T07:19:00.136Z,19.47
2022-07-29T07:21:30.233Z,19.13
2022-07-29T07:23:58.296Z,19.90
2022-07-29T07:26:26.080Z,19.33
2022-07-29T07:28:53.396Z,18.90
2022-07-29T07:31:21.178Z,18.60
2022-07-29T07:33:48.554Z,17.47
2022-07-29T07:36:16.007Z,19.33
2022-07-29T07:38:43.321Z,17.63
2022-07-29T07:41:10.608Z,18.57
2022-07-29T07:43:38.058Z,16.90
2022-07-29T07:46:05.405Z,18.63
2022-07-29T07:48:32.850Z,16.73
2022-07-29T07:51:00.167Z,16.90
2022-07-29T07:53:27.471Z,16.70
2022-07-29T07:56:11.821Z,15.63
2022-07-29T07:58:39.935Z,15.20
2022-07-29T08:01:07.437Z,13.57
2022-07-29T08:03:35.095Z,13.57
2022-07-29T08:06:02.553Z,12.87
2022-07-29T08:08:29.836Z,12.57
2022-07-29T08:10:57.392Z,11.50
2022-07-29T08:13:31.030Z,11.43
2022-07-29T08:15:59.158Z,10.90
2022-07-29T08:18:27.213Z,11.40
2022-07-29T08:20:54.600Z,11.57
2022-07-29T08:23:22.176Z,11.37
2022-07-29T08:25:50.233Z,11.47
2022-07-29T08:28:18.385Z,11.93
2022-07-29T08:30:45.848Z,11.83
2022-07-29T08:33:13.310Z,11.83
2022-07-29T08:35:41.192Z,10.60
2022-07-29T08:38:08.524Z,11.03
2022-07-29T08:40:35.868Z,10.80
2022-07-29T08:43:06.938Z,10.10
2022-07-29T08:45:48.020Z,10.53
2022-07-29T08:48:17.122Z,10.67
2022-07-29T08:50:46.511Z,10.50
2022-07-29T08:53:15.683Z,10.63
2022-07-29T08:55:46.505Z,10.60
2022-07-29T08:58:15.817Z,10.47
2022-07-29T09:00:45.494Z,10.10
2022-07-29T09:03:20.458Z,10.10
2022-07-29T09:05:48.433Z,9.80
2022-07-29T09:08:16.544Z,9.43
2022-07-29T09:10:46.937Z,9.80
2022-07-29T09:13:14.419Z,9.97
2022-07-29T09:15:41.757Z,9.63
2022-07-29T09:18:19.294Z,9.73
2022-07-29T09:21:14.899Z,10.90
2022-07-29T09:23:43.774Z,10.07
2022-07-29T09:26:11.071Z,10.57
2022-07-29T09:28:43.449Z,9.70
2022-07-29T09:31:10.865Z,11.23
2022-07-29T09:33:41.402Z,10.90
2022-07-29T09:36:09.605Z,11.10
2022-07-29T09:38:38.208Z,10.70
2022-07-29T09:41:06.902Z,11.10
2022-07-29T09:43:34.903Z,11.47
2022-07-29T09:46:15.131Z,10.80
2022-07-29T09:48:42.846Z,11.33
2022-07-29T09:51:28.462Z,10.70
2022-07-29T09:54:23.642Z,12.27
2022-07-29T09:56:51.458Z,12.13
2022-07-29T09:59:18.927Z,11.37
2022-07-29T10:01:46.363Z,10.97
2022-07-29T10:04:13.710Z,10.77
2022-07-29T10:07:04.407Z,11.50
2022-07-29T10:09:32.421Z,11.83
2022-07-29T10:12:10.167Z,11.47
2022-07-29T10:14:37.808Z,11.00
2022-07-29T10:17:05.862Z,10.33
2022-07-29T10:19:33.689Z,9.30
2022-07-29T10:22:01.717Z,9.10
2022-07-29T10:24:30.182Z,9.63
2022-07-29T10:26:58.415Z,8.77
2022-07-29T10:29:26.167Z,8.80
2022-07-29T10:31:59.516Z,9.07
2022-07-29T10:34:32.770Z,7.47
2022-07-29T10:37:10.329Z,6.80
2022-07-29T10:39:49.596Z,6.30
2022-07-29T10:42:29.591Z,4.90
2022-07-29T10:45:02.580Z,4.40
2022-07-29T10:47:32.185Z,3.90
2022-07-29T10:50:01.305Z,3.73
2022-07-29T10:53:08.742Z,3.47
2022-07-29T10:55:49.360Z,3.90
2022-07-29T10:58:25.193Z,3.23
2022-07-29T11:00:54.114Z,3.10
2022-07-29T11:03:49.497Z,2.90
2022-07-29T11:06:18.198Z,3.30
2022-07-29T11:09:15.918Z,2.87
2022-07-29T11:11:51.606Z,3.33
2022-07-29T11:14:19.909Z,2.90
2022-07-29T11:17:02.060Z,2.88
2022-07-29T11:19:30.557Z,3.05
2022-07-29T11:21:58.810Z,2.80
2022-07-29T11:24:31.895Z,3.10
2022-07-29T11:27:08.667Z,2.72
2022-07-29T11:29:40.108Z,2.90
2022-07-29T11:32:18.310Z,3.40
2022-07-29T11:34:54.627Z,3.25
2022-07-29T11:37:28.089Z,3.40
2022-07-29T11:40:01.555Z,3.30
2022-07-29T11:42:34.316Z,3.70
2022-07-29T11:45:41.701Z,3.65
2022-07-29T11:47:55.833Z,3.58
2022-07-29T11:50:31.117Z,3.00
2022-07-29T11:53:00.259Z,3.20
2022-07-29T11:55:32.416Z,3.25
2022-07-29T11:58:03.975Z,3.53
2022-07-29T12:00:43.518Z,3.20
2022-07-29T12:03:12.116Z,3.25
2022-07-29T12:05:47.894Z,3.27
2022-07-29T12:08:28.934Z,3.63
2022-07-29T12:10:56.238Z,3.40
2022-07-29T12:13:37.788Z,3.83
2022-07-29T12:16:05.776Z,3.50
2022-07-29T12:18:33.194Z,3.90
2022-07-29T12:21:03.954Z,3.47
2022-07-29T12:23:34.535Z,3.70
2022-07-29T12:26:02.862Z,3.50
2022-07-29T12:28:30.937Z,3.57
2022-07-29T12:30:58.273Z,3.33
2022-07-29T12:33:28.506Z,3.87
2022-07-29T12:36:06.888Z,3.57
2022-07-29T12:38:39.646Z,3.93
2022-07-29T12:41:07.044Z,3.50
2022-07-29T12:43:34.492Z,3.80
2022-07-29T12:46:13.130Z,3.63
2022-07-29T12:48:41.481Z,3.90
2022-07-29T12:51:09.860Z,3.60
2022-07-29T12:53:39.979Z,3.33
2022-07-29T12:56:26.709Z,3.63
2022-07-29T12:58:56.081Z,3.77
2022-07-29T13:01:23.516Z,3.77
2022-07-29T13:03:56.868Z,3.70
2022-07-29T13:06:35.928Z,3.57
2022-07-29T13:09:03.165Z,3.90
2022-07-29T13:11:34.328Z,3.40
2022-07-29T13:14:05.988Z,5.60
2022-07-29T13:16:34.470Z,3.30
2022-07-29T13:19:12.451Z,3.77
2022-07-29T13:21:40.682Z,3.10
2022-07-29T13:24:08.603Z,3.50
2022-07-29T13:26:36.662Z,3.60
2022-07-29T13:29:08.163Z,3.20
2022-07-29T13:31:35.502Z,3.43
2022-07-29T13:34:02.866Z,3.67
2022-07-29T13:36:30.206Z,3.40
2022-07-29T13:38:57.526Z,3.13
2022-07-29T13:41:24.791Z,3.30
2022-07-29T13:43:53.748Z,3.10
2022-07-29T13:46:21.140Z,3.17
2022-07-29T13:48:48.655Z,3.90
2022-07-29T13:51:15.905Z,3.23
2022-07-29T13:53:43.159Z,3.17
2022-07-29T13:56:10.541Z,3.20
2022-07-29T13:58:37.926Z,3.40
2022-07-29T14:01:05.301Z,3.50
2022-07-29T14:03:32.682Z,3.07
2022-07-29T14:06:01.351Z,3.30
2022-07-29T14:08:28.797Z,3.60
2022-07-29T14:10:56.153Z,3.20
2022-07-29T14:13:25.030Z,3.37
2022-07-29T14:15:53.908Z,3.17
2022-07-29T14:18:21.166Z,3.20
2022-07-29T14:20:48.475Z,3.80
2022-07-29T14:23:16.398Z,3.27
2022-07-29T14:25:43.786Z,3.23
2022-07-29T14:28:11.850Z,3.47
2022-07-29T14:30:42.161Z,3.60
2022-07-29T14:33:09.516Z,3.37
2022-07-29T14:35:36.757Z,3.60
2022-07-29T14:38:04.138Z,3.50
2022-07-29T14:40:31.374Z,3.83
2022-07-29T14:42:58.831Z,3.97
2022-07-29T14:45:26.135Z,3.90
2022-07-29T14:47:57.157Z,3.60
2022-07-29T14:50:31.368Z,3.63
2022-07-29T14:52:59.508Z,4.13
2022-07-29T14:55:26.818Z,4.13
2022-07-29T14:58:03.118Z,4.53
2022-07-29T15:00:35.226Z,5.27
2022-07-29T15:03:03.223Z,4.47
2022-07-29T15:05:31.246Z,3.93
2022-07-29T15:07:59.724Z,3.90
2022-07-29T15:10:28.120Z,3.97
2022-07-29T15:12:55.714Z,3.97
2022-07-29T15:15:23.011Z,4.40
2022-07-29T15:17:50.431Z,4.67
2022-07-29T15:20:17.706Z,6.20
2022-07-29T15:22:45.152Z,12.40
2022-07-29T15:25:12.382Z,8.77
2022-07-29T15:27:39.785Z,8.57
2022-07-29T15:30:07.281Z,6.20
2022-07-29T15:32:34.584Z,6.13
2022-07-29T15:35:01.802Z,6.27
2022-07-29T15:37:29.370Z,5.47
2022-07-29T15:40:16.649Z,7.70
2022-07-29T15:42:43.937Z,9.23
2022-07-29T15:45:11.417Z,9.17
2022-07-29T15:47:38.682Z,9.67
2022-07-29T15:50:07.603Z,10.47
2022-07-29T15:52:34.860Z,9.97
2022-07-29T15:55:02.258Z,9.83
2022-07-29T15:57:29.521Z,9.83
2022-07-29T15:59:57.295Z,10.20
2022-07-29T16:02:24.767Z,10.27
2022-07-29T16:04:52.157Z,10.77
2022-07-29T16:07:19.420Z,11.03
2022-07-29T16:09:52.443Z,17.77
2022-07-29T16:12:20.496Z,11.50
2022-07-29T16:14:49.376Z,12.00
2022-07-29T16:17:16.994Z,10.50
2022-07-29T16:19:45.309Z,10.90
2022-07-29T16:22:12.694Z,10.20
2022-07-29T16:24:40.005Z,11.60
2022-07-29T16:27:07.534Z,10.33
2022-07-29T16:29:36.928Z,10.13
2022-07-29T16:32:04.495Z,10.70
2022-07-29T16:34:31.858Z,10.60
2022-07-29T16:36:59.331Z,9.93
2022-07-29T16:39:26.929Z,8.60
2022-07-29T16:41:59.532Z,9.73
2022-07-29T16:44:27.873Z,8.73
2022-07-29T16:46:56.157Z,9.10
2022-07-29T16:49:26.936Z,8.53
2022-07-29T16:51:54.276Z,8.13
2022-07-29T16:54:21.631Z,6.90
2022-07-29T16:56:48.959Z,7.20
2022-07-29T16:59:16.398Z,6.93
2022-07-29T17:01:43.754Z,9.20
2022-07-29T17:04:12.066Z,6.60
2022-07-29T17:06:40.068Z,6.10
2022-07-29T17:09:08.610Z,6.77
2022-07-29T17:11:54.078Z,6.00
2022-07-29T17:14:25.716Z,6.40
2022-07-29T17:17:00.514Z,5.70
2022-07-29T17:19:30.274Z,5.13
2022-07-29T17:22:06.796Z,5.10
2022-07-29T17:24:36.501Z,4.80
2022-07-29T17:27:03.782Z,4.97
2022-07-29T17:29:31.144Z,5.00
2022-07-29T17:31:59.543Z,4.50
2022-07-29T17:34:26.882Z,4.60
2022-07-29T17:36:54.119Z,4.53
2022-07-29T17:39:21.693Z,4.30
2022-07-29T17:41:49.104Z,3.90
2022-07-29T17:44:16.432Z,4.17
2022-07-29T17:46:43.732Z,4.37
2022-07-29T17:49:11.435Z,4.27
2022-07-29T17:51:38.773Z,5.77
2022-07-29T17:54:06.243Z,7.57
2022-07-29T17:56:33.844Z,3.70
2022-07-29T17:59:06.351Z,3.83
2022-07-29T18:01:34.330Z,3.87
2022-07-29T18:04:02.976Z,3.60
2022-07-29T18:06:30.287Z,3.90
2022-07-29T18:08:57.654Z,4.10
2022-07-29T18:11:25.029Z,3.63
2022-07-29T18:13:52.455Z,4.00
2022-07-29T18:16:20.176Z,3.60
2022-07-29T18:18:47.639Z,3.70
2022-07-29T18:21:14.985Z,3.33
2022-07-29T18:23:42.364Z,3.70
2022-07-29T18:26:10.450Z,4.73
2022-07-29T18:28:37.786Z,10.27
2022-07-29T18:31:07.361Z,4.43
2022-07-29T18:33:34.717Z,3.80
2022-07-29T18:36:11.080Z,3.70
2022-07-29T18:38:40.096Z,4.10
2022-07-29T18:41:07.479Z,3.87
2022-07-29T18:43:34.874Z,4.17
2022-07-29T18:46:02.602Z,3.90
2022-07-29T18:48:29.915Z,4.03
2022-07-29T18:50:57.194Z,3.87
2022-07-29T18:53:24.491Z,4.77
2022-07-29T18:55:51.836Z,5.17
2022-07-29T18:58:19.160Z,4.20
2022-07-29T19:00:46.447Z,4.00
2022-07-29T19:03:13.850Z,3.80
2022-07-29T19:05:41.263Z,4.00
2022-07-29T19:08:08.562Z,3.90
2022-07-29T19:10:35.862Z,3.97
2022-07-29T19:13:03.292Z,4.10
2022-07-29T19:15:30.641Z,4.53
2022-07-29T19:18:01.161Z,4.10
2022-07-29T19:20:29.338Z,4.43
2022-07-29T19:22:56.900Z,4.07
2022-07-29T19:25:24.260Z,3.90
2022-07-29T19:27:51.550Z,4.10
2022-07-29T19:30:19.039Z,4.10
2022-07-29T19:32:47.916Z,3.87
2022-07-29T19:35:31.127Z,4.80
2022-07-29T19:38:00.026Z,4.20
2022-07-29T19:40:28.395Z,6.93
2022-07-29T19:42:56.030Z,5.40
2022-07-29T19:45:24.669Z,10.23
2022-07-29T19:47:52.035Z,5.23
2022-07-29T19:50:19.646Z,5.67
2022-07-29T19:52:47.197Z,5.20
2022-07-29T19:55:14.949Z,4.83
2022-07-29T19:57:42.239Z,4.93
2022-07-29T20:00:11.144Z,4.90
2022-07-29T20:02:39.398Z,4.37
2022-07-29T20:05:07.406Z,5.17
2022-07-29T20:07:34.954Z,4.50
2022-07-29T20:10:02.275Z,4.40
2022-07-29T20:12:29.515Z,4.77
2022-07-29T20:14:56.812Z,4.63
2022-07-29T20:17:24.733Z,5.20
2022-07-29T20:19:52.983Z,4.90
2022-07-29T20:22:21.055Z,4.97
2022-07-29T20:24:48.965Z,20.87
2022-07-29T20:27:16.431Z,4.87
2022-07-29T20:29:43.747Z,4.10
2022-07-29T20:32:12.450Z,4.50
2022-07-29T20:34:41.450Z,4.00
2022-07-29T20:37:14.434Z,4.50
2022-07-29T20:39:47.774Z,4.40
2022-07-29T20:42:15.637Z,4.47
2022-07-29T20:44:43.049Z,4.40
2022-07-29T20:47:10.541Z,4.57
2022-07-29T20:49:37.773Z,4.13
2022-07-29T20:52:05.102Z,4.30
2022-07-29T20:54:32.400Z,4.57
2022-07-29T20:56:59.887Z,4.70
2022-07-29T20:59:27.458Z,4.73
2022-07-29T21:01:55.558Z,4.03
2022-07-29T21:04:22.974Z,4.23
2022-07-29T21:06:58.433Z,4.23
2022-07-29T21:09:25.911Z,5.13
2022-07-29T21:11:53.251Z,4.30
2022-07-29T21:14:40.742Z,4.70
2022-07-29T21:17:08.250Z,4.60
2022-07-29T21:19:35.715Z,4.50
2022-07-29T21:22:03.307Z,4.53
2022-07-29T21:24:30.555Z,4.80
2022-07-29T21:27:21.172Z,4.70
2022-07-29T21:29:49.072Z,4.40
2022-07-29T21:32:29.927Z,4.60
2022-07-29T21:34:58.094Z,4.60
2022-07-29T21:37:25.558Z,4.70
2022-07-29T21:39:52.939Z,4.47
2022-07-29T21:42:20.344Z,5.33
2022-07-29T21:44:47.640Z,4.90
2022-07-29T21:47:14.901Z,4.27
2022-07-29T21:49:42.303Z,5.23
2022-07-29T21:52:09.669Z,5.73
2022-07-29T21:54:36.922Z,5.17
2022-07-29T21:57:05.003Z,5.30
2022-07-29T21:59:32.404Z,5.23
2022-07-29T22:02:03.450Z,4.60
2022-07-29T22:04:30.800Z,5.00
2022-07-29T22:06:58.934Z,5.53
2022-07-29T22:09:26.567Z,9.03
2022-07-29T22:11:54.270Z,5.50
2022-07-29T22:14:22.236Z,5.07
2022-07-29T22:16:49.565Z,5.17
2022-07-29T22:19:16.877Z,5.33
2022-07-29T22:21:44.347Z,5.13
2022-07-29T22:24:11.697Z,4.87
2022-07-29T22:26:39.378Z,5.33
2022-07-29T22:29:06.727Z,5.00
2022-07-29T22:31:34.053Z,5.20
2022-07-29T22:34:01.265Z,5.50
2022-07-29T22:36:28.553Z,4.93
2022-07-29T22:38:55.799Z,5.77
2022-07-29T22:41:23.098Z,4.87
2022-07-29T22:43:50.321Z,5.30
2022-07-29T22:46:17.683Z,5.37
2022-07-29T22:48:45.030Z,5.70
2022-07-29T22:51:12.328Z,5.83
2022-07-29T22:53:39.585Z,5.87
2022-07-29T22:56:07.311Z,4.97
2022-07-29T22:58:34.537Z,5.97
2022-07-29T23:01:01.860Z,5.40
2022-07-29T23:03:29.226Z,5.30
2022-07-29T23:05:56.527Z,6.37
2022-07-29T23:08:23.889Z,5.60
2022-07-29T23:10:51.148Z,5.50
2022-07-29T23:13:18.510Z,5.87
2022-07-29T23:15:45.826Z,5.80
2022-07-29T23:18:13.238Z,5.80
2022-07-29T23:20:40.518Z,6.07
2022-07-29T23:23:09.053Z,5.70
2022-07-29T23:25:36.460Z,6.10
2022-07-29T23:28:03.857Z,5.83
2022-07-29T23:30:31.187Z,5.57
2022-07-29T23:32:58.603Z,6.13
2022-07-29T23:35:25.895Z,5.77
2022-07-29T23:37:53.191Z,5.80
2022-07-29T23:40:20.481Z,5.57
2022-07-29T23:42:47.771Z,7.07
2022-07-29T23:45:15.142Z,8.80
2022-07-29T23:47:42.592Z,9.47
2022-07-29T23:50:15.255Z,9.30
2022-07-29T23:52:42.697Z,10.13
2022-07-29T23:55:36.352Z,9.30
2022-07-29T23:57:57.858Z,8.87
